Time;durP1;ratioP1;P1;durP2;ratioP2;P2;SDS_P1;SDS_P2;PMS_P1;PMS_P2;Temp;Humidity;BMP_temperature;BMP_pressure;BME280_temperature;BME280_humidity;BME280_pressure;Samples;Min_cycle;Max_cycle;Signal;HPM_P1;HPM_P2
2024/04/17 00:02:14;;;;;;;;;;;20.30;55.60;;;;;;5256108;26;85998;-39
2024/04/17 00:04:40;;;;;;;;;;;20.40;55.60;;;;;;5256278;26;85334;-39
2024/04/17 00:07:06;;;;;;;;;;;20.30;55.60;;;;;;5260977;26;85181;-39
2024/04/17 00:09:32;;;;;;;;;;;20.30;55.70;;;;;;5254790;26;85376;-39
2024/04/17 00:11:57;;;;;;;;;;;20.30;55.70;;;;;;5259625;26;86821;-40
2024/04/17 00:14:23;;;;;;;;;;;20.30;55.60;;;;;;5253053;26;85683;-39
2024/04/17 00:16:48;;;;;;;;;;;20.30;55.60;;;;;;5255910;26;85676;-38
2024/04/17 00:19:14;;;;;;;;;;;20.30;55.70;;;;;;5257638;26;86332;-39
2024/04/17 00:21:40;;;;;;;;;;;20.20;55.70;;;;;;5249417;26;87396;-38
2024/04/17 00:24:05;;;;;;;;;;;20.30;55.70;;;;;;5249585;26;87120;-39
2024/04/17 00:26:31;;;;;;;;;;;20.20;55.70;;;;;;5239330;26;86705;-39
2024/04/17 00:28:56;;;;;;;;;;;20.20;55.60;;;;;;5261561;26;85939;-39
2024/04/17 00:31:22;;;;;;;;;;;20.20;55.70;;;;;;5240304;26;86367;-39
2024/04/17 00:33:48;;;;;;;;;;;20.20;55.70;;;;;;5268546;26;86905;-38
2024/04/17 00:36:13;;;;;;;;;;;20.20;55.70;;;;;;5243710;26;84467;-39
2024/04/17 00:38:39;;;;;;;;;;;20.20;55.70;;;;;;5268972;26;85194;-39
2024/04/17 00:41:04;;;;;;;;;;;20.20;55.80;;;;;;5236363;26;87002;-39
2024/04/17 00:43:30;;;;;;;;;;;20.20;55.70;;;;;;5250266;26;86215;-39
2024/04/17 00:45:55;;;;;;;;;;;20.20;55.80;;;;;;5248438;26;86408;-39
2024/04/17 00:48:21;;;;;;;;;;;20.10;55.80;;;;;;5263125;26;85848;-39
2024/04/17 00:50:48;;;;;;;;;;;20.10;55.80;;;;;;5248923;26;85599;-39
2024/04/17 00:53:17;;;;;;;;;;;20.10;55.70;;;;;;5255828;26;87012;-39
2024/04/17 00:55:43;;;;;;;;;;;20.10;55.80;;;;;;5255624;26;85570;-39
2024/04/17 00:58:09;;;;;;;;;;;20.10;55.90;;;;;;5248169;26;86631;-39
2024/04/17 01:00:35;;;;;;;;;;;20.10;55.90;;;;;;5254698;26;86943;-39
2024/04/17 01:03:01;;;;;;;;;;;20.00;55.80;;;;;;5247291;26;85701;-39
2024/04/17 01:05:27;;;;;;;;;;;20.10;55.90;;;;;;5252782;26;85999;-39
2024/04/17 01:07:53;;;;;;;;;;;20.00;55.80;;;;;;5260859;26;88048;-39
2024/04/17 01:10:18;;;;;;;;;;;20.00;55.80;;;;;;5251795;26;85423;-39
2024/04/17 01:12:44;;;;;;;;;;;20.00;55.80;;;;;;5250530;26;86756;-39
2024/04/17 01:15:10;;;;;;;;;;;20.00;56.00;;;;;;5250985;26;85314;-39
2024/04/17 01:17:36;;;;;;;;;;;20.00;55.90;;;;;;5242674;26;85530;-39
2024/04/17 01:20:02;;;;;;;;;;;20.00;55.90;;;;;;5252267;26;87299;-40
2024/04/17 01:22:28;;;;;;;;;;;20.00;56.00;;;;;;5248494;26;85322;-39
2024/04/17 01:24:53;;;;;;;;;;;20.00;55.90;;;;;;5265318;26;85787;-39
2024/04/17 01:27:19;;;;;;;;;;;20.00;56.00;;;;;;5251995;26;85821;-38
2024/04/17 01:29:44;;;;;;;;;;;20.00;56.00;;;;;;5262593;26;85326;-38
2024/04/17 01:32:10;;;;;;;;;;;20.00;56.00;;;;;;5240926;26;86073;-39
2024/04/17 01:34:35;;;;;;;;;;;20.00;56.00;;;;;;5269805;26;85848;-40
2024/04/17 01:37:01;;;;;;;;;;;19.90;56.00;;;;;;5238564;26;86209;-39
2024/04/17 01:39:26;;;;;;;;;;;19.90;56.00;;;;;;5257961;26;87097;-39
2024/04/17 01:41:52;;;;;;;;;;;20.00;56.00;;;;;;5241996;26;86058;-39
2024/04/17 01:44:17;;;;;;;;;;;19.90;56.00;;;;;;5256727;26;86910;-38
2024/04/17 01:46:43;;;;;;;;;;;19.90;56.10;;;;;;5235806;26;87811;-39
2024/04/17 01:49:08;;;;;;;;;;;19.90;56.20;;;;;;5261243;26;84584;-39
2024/04/17 01:51:34;;;;;;;;;;;19.90;56.20;;;;;;5239564;26;85669;-39
2024/04/17 01:53:59;;;;;;;;;;;19.90;56.10;;;;;;5259165;26;86293;-39
2024/04/17 01:56:24;;;;;;;;;;;19.90;56.20;;;;;;5250560;26;86321;-39
2024/04/17 01:58:50;;;;;;;;;;;19.90;56.10;;;;;;5259812;26;85808;-39
2024/04/17 02:01:15;;;;;;;;;;;19.80;56.10;;;;;;5248517;26;85225;-39
2024/04/17 02:03:41;;;;;;;;;;;19.80;56.20;;;;;;5250682;26;86565;-39
2024/04/17 02:06:07;;;;;;;;;;;19.80;56.20;;;;;;5243042;26;87067;-39
2024/04/17 02:08:32;;;;;;;;;;;19.80;56.20;;;;;;5251383;26;85742;-39
2024/04/17 02:10:58;;;;;;;;;;;19.80;56.30;;;;;;5253170;26;86526;-39
2024/04/17 02:13:23;;;;;;;;;;;19.80;56.20;;;;;;5263752;26;85067;-39
2024/04/17 02:15:49;;;;;;;;;;;19.80;56.20;;;;;;5255490;26;85395;-39
2024/04/17 02:18:14;;;;;;;;;;;19.80;56.30;;;;;;5254227;26;87037;-39
2024/04/17 02:20:40;;;;;;;;;;;19.80;56.30;;;;;;5262283;26;86307;-39
2024/04/17 02:23:05;;;;;;;;;;;19.80;56.30;;;;;;5239702;26;87393;-39
2024/04/17 02:25:31;;;;;;;;;;;19.80;56.30;;;;;;5246920;26;86930;-39
2024/04/17 02:27:57;;;;;;;;;;;19.70;56.30;;;;;;5245862;26;85139;-39
2024/04/17 02:30:22;;;;;;;;;;;19.70;56.30;;;;;;5246583;26;86689;-39
2024/04/17 02:32:50;;;;;;;;;;;19.70;56.30;;;;;;5242652;26;85910;-39
2024/04/17 02:35:15;;;;;;;;;;;19.70;56.30;;;;;;5255972;26;85653;-39
2024/04/17 02:37:41;;;;;;;;;;;19.70;56.30;;;;;;5247129;26;85319;-39
2024/04/17 02:40:07;;;;;;;;;;;19.70;56.30;;;;;;5264629;26;85976;-39
2024/04/17 02:42:32;;;;;;;;;;;19.70;56.30;;;;;;5246120;26;86667;-39
2024/04/17 02:44:58;;;;;;;;;;;19.70;56.40;;;;;;5250090;26;86876;-39
2024/04/17 02:47:23;;;;;;;;;;;19.70;56.30;;;;;;5240272;26;85320;-39
2024/04/17 02:49:49;;;;;;;;;;;19.70;56.40;;;;;;5259129;26;86582;-39
2024/04/17 02:52:14;;;;;;;;;;;19.70;56.40;;;;;;5246825;26;86221;-39
2024/04/17 02:54:40;;;;;;;;;;;19.70;56.40;;;;;;5265487;26;85545;-39
2024/04/17 02:57:05;;;;;;;;;;;19.70;56.40;;;;;;5273497;26;86783;-39
2024/04/17 02:59:31;;;;;;;;;;;19.60;56.40;;;;;;5251041;26;85807;-39
2024/04/17 03:01:57;;;;;;;;;;;19.60;56.50;;;;;;5250517;26;85762;-39
2024/04/17 03:04:22;;;;;;;;;;;19.60;56.40;;;;;;5246667;26;85776;-39
2024/04/17 03:06:47;;;;;;;;;;;19.60;56.50;;;;;;5252420;26;85905;-40
2024/04/17 03:09:13;;;;;;;;;;;19.60;56.40;;;;;;5261765;26;86159;-39
2024/04/17 03:11:39;;;;;;;;;;;19.60;56.40;;;;;;5248671;26;87381;-39
2024/04/17 03:14:04;;;;;;;;;;;19.60;56.50;;;;;;5259169;26;85282;-39
2024/04/17 03:16:30;;;;;;;;;;;19.60;56.50;;;;;;5261592;26;86509;-39
2024/04/17 03:18:55;;;;;;;;;;;19.60;56.50;;;;;;5247521;26;85855;-39
2024/04/17 03:21:21;;;;;;;;;;;19.60;56.50;;;;;;5264170;26;85632;-38
2024/04/17 03:23:46;;;;;;;;;;;19.50;56.50;;;;;;5260273;26;87117;-39
2024/04/17 03:26:12;;;;;;;;;;;19.50;56.60;;;;;;5258776;26;84615;-39
2024/04/17 03:28:37;;;;;;;;;;;19.60;56.60;;;;;;5241012;26;85973;-39
2024/04/17 03:31:03;;;;;;;;;;;19.50;56.60;;;;;;5260119;26;85783;-39
2024/04/17 03:33:29;;;;;;;;;;;19.50;56.60;;;;;;5242256;26;86249;-39
2024/04/17 03:35:58;;;;;;;;;;;19.50;56.70;;;;;;5267483;26;86556;-39
2024/04/17 03:38:24;;;;;;;;;;;19.50;56.70;;;;;;5243442;26;87001;-39
2024/04/17 03:40:49;;;;;;;;;;;19.40;56.70;;;;;;5265055;26;85884;-39
2024/04/17 03:43:15;;;;;;;;;;;19.50;56.70;;;;;;5255252;26;86620;-39
2024/04/17 03:45:41;;;;;;;;;;;19.40;56.70;;;;;;5246402;26;85631;-39
2024/04/17 03:48:07;;;;;;;;;;;19.40;57.40;;;;;;5246319;26;86109;-39
2024/04/17 03:50:32;;;;;;;;;;;19.40;56.80;;;;;;5255747;26;86134;-39
2024/04/17 03:52:58;;;;;;;;;;;19.40;56.70;;;;;;5239441;26;85312;-39
2024/04/17 03:55:23;;;;;;;;;;;19.40;56.90;;;;;;5262795;26;85423;-39
2024/04/17 03:57:49;;;;;;;;;;;19.40;57.00;;;;;;5253032;26;88035;-39
2024/04/17 04:00:15;;;;;;;;;;;19.40;57.00;;;;;;5244035;26;87183;-39
2024/04/17 04:02:40;;;;;;;;;;;19.40;57.00;;;;;;5245758;26;86609;-39
2024/04/17 04:05:06;;;;;;;;;;;19.40;57.00;;;;;;5264115;26;86935;-39
2024/04/17 04:07:31;;;;;;;;;;;19.40;57.10;;;;;;5247319;26;86629;-39
2024/04/17 04:09:58;;;;;;;;;;;19.40;57.00;;;;;;5252344;26;87364;-39
2024/04/17 04:12:24;;;;;;;;;;;19.30;57.00;;;;;;5251376;26;85825;-39
2024/04/17 04:14:49;;;;;;;;;;;19.30;57.00;;;;;;5249342;26;85310;-39
2024/04/17 04:17:15;;;;;;;;;;;19.30;57.10;;;;;;5265058;26;87034;-39
2024/04/17 04:19:40;;;;;;;;;;;19.30;57.10;;;;;;5249659;26;85651;-39
2024/04/17 04:22:06;;;;;;;;;;;19.30;57.00;;;;;;5253244;26;86573;-39
2024/04/17 04:24:31;;;;;;;;;;;19.30;57.10;;;;;;5251158;26;85846;-39
2024/04/17 04:26:57;;;;;;;;;;;19.30;57.10;;;;;;5255926;26;85585;-39
2024/04/17 04:29:22;;;;;;;;;;;19.30;57.20;;;;;;5253020;26;85927;-39
2024/04/17 04:31:48;;;;;;;;;;;19.30;57.20;;;;;;5262078;26;86203;-38
2024/04/17 04:34:14;;;;;;;;;;;19.30;57.20;;;;;;5250760;26;86673;-39
2024/04/17 04:36:39;;;;;;;;;;;19.20;57.20;;;;;;5259060;26;85847;-39
2024/04/17 04:39:05;;;;;;;;;;;19.30;57.30;;;;;;5237574;26;84630;-39
2024/04/17 04:41:30;;;;;;;;;;;19.20;57.30;;;;;;5258007;26;85869;-39
2024/04/17 04:43:56;;;;;;;;;;;19.20;57.30;;;;;;5244997;26;85244;-38
2024/04/17 04:46:21;;;;;;;;;;;19.20;57.30;;;;;;5262635;26;86322;-38
2024/04/17 04:48:47;;;;;;;;;;;19.20;57.30;;;;;;5244896;26;86991;-38
2024/04/17 04:51:12;;;;;;;;;;;19.20;57.40;;;;;;5262077;26;85341;-38
2024/04/17 04:53:38;;;;;;;;;;;19.20;57.40;;;;;;5249466;26;85360;-38
2024/04/17 04:56:04;;;;;;;;;;;19.20;57.50;;;;;;5263515;26;85850;-39
2024/04/17 04:58:30;;;;;;;;;;;19.20;57.50;;;;;;5246717;26;85358;-38
2024/04/17 05:00:56;;;;;;;;;;;19.20;57.50;;;;;;5255628;26;85345;-38
2024/04/17 05:03:22;;;;;;;;;;;19.20;57.60;;;;;;5250028;26;85154;-38
2024/04/17 05:05:47;;;;;;;;;;;19.10;57.50;;;;;;5261915;26;86157;-38
2024/04/17 05:08:13;;;;;;;;;;;19.20;57.60;;;;;;5262840;26;85147;-38
2024/04/17 05:10:39;;;;;;;;;;;19.10;57.60;;;;;;5248584;26;87108;-38
2024/04/17 05:13:04;;;;;;;;;;;19.10;57.60;;;;;;5252229;26;87586;-39
2024/04/17 05:15:30;;;;;;;;;;;19.10;57.70;;;;;;5252689;26;86946;-39
2024/04/17 05:17:56;;;;;;;;;;;19.10;57.80;;;;;;5253785;26;85345;-38
2024/04/17 05:20:21;;;;;;;;;;;19.10;57.70;;;;;;5248136;26;86451;-38
2024/04/17 05:22:47;;;;;;;;;;;19.10;57.80;;;;;;5256729;26;87029;-39
2024/04/17 05:25:12;;;;;;;;;;;19.10;57.80;;;;;;5244966;26;86388;-39
2024/04/17 05:27:38;;;;;;;;;;;19.10;57.80;;;;;;5262277;26;86988;-39
2024/04/17 05:30:04;;;;;;;;;;;19.10;57.80;;;;;;5250651;26;85632;-39
2024/04/17 05:32:30;;;;;;;;;;;19.10;57.90;;;;;;5264477;26;86303;-38
2024/04/17 05:34:55;;;;;;;;;;;19.00;57.80;;;;;;5248761;26;87877;-39
2024/04/17 05:37:21;;;;;;;;;;;19.00;57.90;;;;;;5253719;26;85286;-38
2024/04/17 05:39:46;;;;;;;;;;;19.00;57.90;;;;;;5252107;26;86733;-39
2024/04/17 05:42:12;;;;;;;;;;;19.00;57.90;;;;;;5256387;26;86164;-39
2024/04/17 05:44:38;;;;;;;;;;;19.00;57.90;;;;;;5254668;26;85571;-39
2024/04/17 05:47:04;;;;;;;;;;;19.00;57.90;;;;;;5247279;26;86603;-38
2024/04/17 05:49:30;;;;;;;;;;;19.00;57.90;;;;;;5242831;26;85734;-39
2024/04/17 05:51:56;;;;;;;;;;;19.00;58.00;;;;;;5263300;26;84523;-39
2024/04/17 05:54:22;;;;;;;;;;;19.00;58.00;;;;;;5243351;26;87093;-38
2024/04/17 05:56:49;;;;;;;;;;;18.90;58.00;;;;;;5260115;26;85436;-38
2024/04/17 05:59:14;;;;;;;;;;;19.00;58.10;;;;;;5249471;26;86638;-39
2024/04/17 06:01:40;;;;;;;;;;;19.00;58.10;;;;;;5267680;26;85167;-38
2024/04/17 06:04:05;;;;;;;;;;;19.00;58.30;;;;;;5251904;26;87213;-38
2024/04/17 06:06:31;;;;;;;;;;;18.90;58.30;;;;;;5256869;26;86650;-39
2024/04/17 06:08:56;;;;;;;;;;;18.90;58.30;;;;;;5243615;26;86983;-38
2024/04/17 06:11:23;;;;;;;;;;;18.90;58.40;;;;;;5239109;26;85939;-38
2024/04/17 06:13:49;;;;;;;;;;;18.90;58.50;;;;;;5244222;26;86689;-38
2024/04/17 06:16:15;;;;;;;;;;;18.90;58.60;;;;;;5262411;26;84477;-40
2024/04/17 06:18:40;;;;;;;;;;;18.90;58.60;;;;;;5245459;26;85239;-39
2024/04/17 06:21:06;;;;;;;;;;;18.90;58.50;;;;;;5252366;26;86994;-38
2024/04/17 06:23:32;;;;;;;;;;;18.90;58.70;;;;;;5254791;26;86493;-39
2024/04/17 06:25:57;;;;;;;;;;;18.90;58.70;;;;;;5250771;26;88127;-39
2024/04/17 06:28:23;;;;;;;;;;;18.80;58.70;;;;;;5256140;26;85926;-38
2024/04/17 06:30:48;;;;;;;;;;;18.90;58.80;;;;;;5250595;26;87195;-39
2024/04/17 06:33:14;;;;;;;;;;;18.90;58.90;;;;;;5256475;26;85669;-39
2024/04/17 06:35:39;;;;;;;;;;;18.90;59.00;;;;;;5244416;26;85348;-39
2024/04/17 06:38:05;;;;;;;;;;;18.90;58.90;;;;;;5252567;26;85789;-38
2024/04/17 06:40:30;;;;;;;;;;;18.90;58.90;;;;;;5246396;26;85231;-39
2024/04/17 06:42:56;;;;;;;;;;;18.80;58.90;;;;;;5268767;26;85476;-39
2024/04/17 06:45:22;;;;;;;;;;;18.80;59.00;;;;;;5255686;26;85516;-39
2024/04/17 06:47:47;;;;;;;;;;;18.80;59.00;;;;;;5260081;26;86706;-39
2024/04/17 06:50:13;;;;;;;;;;;18.80;59.10;;;;;;5250625;26;85269;-39
2024/04/17 06:52:38;;;;;;;;;;;18.80;59.10;;;;;;5261562;26;86649;-39
2024/04/17 06:55:04;;;;;;;;;;;18.80;59.10;;;;;;5245651;26;87215;-39
2024/04/17 06:57:30;;;;;;;;;;;18.80;59.10;;;;;;5262771;26;85268;-39
2024/04/17 06:59:55;;;;;;;;;;;18.70;59.20;;;;;;5242072;26;87387;-39
2024/04/17 07:02:21;;;;;;;;;;;18.80;59.30;;;;;;5257175;26;85293;-39
2024/04/17 07:04:47;;;;;;;;;;;18.80;59.20;;;;;;5244908;26;86463;-39
2024/04/17 07:07:12;;;;;;;;;;;18.70;59.20;;;;;;5258396;26;85806;-39
2024/04/17 07:09:39;;;;;;;;;;;18.70;59.30;;;;;;5257478;26;85327;-39
2024/04/17 07:12:05;;;;;;;;;;;18.70;59.30;;;;;;5265019;26;86524;-39
2024/04/17 07:14:31;;;;;;;;;;;18.70;59.40;;;;;;5255669;26;87327;-39
2024/04/17 07:16:57;;;;;;;;;;;18.70;59.30;;;;;;5256236;26;85481;-39
2024/04/17 07:19:24;;;;;;;;;;;18.70;59.40;;;;;;5245648;26;87349;-39
2024/04/17 07:21:50;;;;;;;;;;;18.70;59.50;;;;;;5250722;26;85447;-39
2024/04/17 07:24:16;;;;;;;;;;;18.70;60.20;;;;;;5254621;26;86608;-39
2024/04/17 07:26:41;;;;;;;;;;;18.70;59.60;;;;;;5252279;26;85185;-39
2024/04/17 07:29:07;;;;;;;;;;;18.70;59.60;;;;;;5256354;26;84836;-39
2024/04/17 07:31:33;;;;;;;;;;;18.60;59.60;;;;;;5250708;26;85704;-39
2024/04/17 07:33:58;;;;;;;;;;;18.60;59.50;;;;;;5254843;26;86951;-39
2024/04/17 07:36:24;;;;;;;;;;;18.60;59.60;;;;;;5263856;26;87032;-39
2024/04/17 07:38:49;;;;;;;;;;;18.60;59.70;;;;;;5264206;26;86304;-39
2024/04/17 07:41:15;;;;;;;;;;;18.60;59.60;;;;;;5248692;26;85221;-39
2024/04/17 07:43:40;;;;;;;;;;;18.60;59.70;;;;;;5256666;26;86603;-39
2024/04/17 07:46:06;;;;;;;;;;;18.60;59.70;;;;;;5248410;26;86466;-39
2024/04/17 07:48:32;;;;;;;;;;;18.60;59.70;;;;;;5255967;26;87288;-39
2024/04/17 07:50:58;;;;;;;;;;;18.70;59.80;;;;;;5258716;26;85719;-39
2024/04/17 07:53:23;;;;;;;;;;;18.60;59.70;;;;;;5256947;26;85633;-39
2024/04/17 07:55:49;;;;;;;;;;;18.60;59.70;;;;;;5242356;26;85367;-39
2024/04/17 07:58:14;;;;;;;;;;;18.60;59.80;;;;;;5255657;26;86668;-39
2024/04/17 08:00:41;;;;;;;;;;;18.60;59.80;;;;;;5239660;26;86738;-39
2024/04/17 08:03:07;;;;;;;;;;;18.60;59.80;;;;;;5255256;26;87613;-39
2024/04/17 08:05:32;;;;;;;;;;;18.60;59.70;;;;;;5238695;26;87289;-39
2024/04/17 08:07:58;;;;;;;;;;;18.60;59.80;;;;;;5245715;26;85352;-39
2024/04/17 08:10:23;;;;;;;;;;;18.60;59.80;;;;;;5246716;26;86942;-39
2024/04/17 08:12:52;;;;;;;;;;;18.60;59.80;;;;;;5245849;26;86781;-38
2024/04/17 08:15:20;;;;;;;;;;;18.60;59.80;;;;;;5255634;26;85266;-39
2024/04/17 08:17:46;;;;;;;;;;;18.60;59.80;;;;;;5258863;26;86937;-39
2024/04/17 08:20:12;;;;;;;;;;;18.50;59.90;;;;;;5250946;26;85660;-39
2024/04/17 08:22:37;;;;;;;;;;;18.50;60.00;;;;;;5250228;26;85275;-39
2024/04/17 08:25:03;;;;;;;;;;;18.50;59.90;;;;;;5260415;26;86694;-39
2024/04/17 08:27:29;;;;;;;;;;;18.50;60.00;;;;;;5242436;26;85309;-39
2024/04/17 08:29:54;;;;;;;;;;;18.50;60.00;;;;;;5257690;26;85227;-39
2024/04/17 08:32:20;;;;;;;;;;;18.50;60.00;;;;;;5259717;26;85729;-39
2024/04/17 08:34:45;;;;;;;;;;;18.50;59.90;;;;;;5258395;26;85999;-39
2024/04/17 08:37:11;;;;;;;;;;;18.50;59.90;;;;;;5244981;26;86544;-39
2024/04/17 08:39:36;;;;;;;;;;;18.50;60.00;;;;;;5260286;26;86873;-39
2024/04/17 08:42:04;;;;;;;;;;;18.50;60.10;;;;;;5256111;26;84618;-39
2024/04/17 08:44:30;;;;;;;;;;;18.50;60.00;;;;;;5260900;26;85700;-39
2024/04/17 08:46:56;;;;;;;;;;;18.50;60.10;;;;;;5245489;26;85522;-39
2024/04/17 08:49:21;;;;;;;;;;;18.50;60.10;;;;;;5264214;26;87524;-38
2024/04/17 08:51:47;;;;;;;;;;;18.40;60.00;;;;;;5236638;26;87002;-39
2024/04/17 08:54:15;;;;;;;;;;;18.50;60.10;;;;;;5260510;26;86071;-38
2024/04/17 08:56:40;;;;;;;;;;;18.50;60.10;;;;;;5252272;26;85371;-39
2024/04/17 08:59:06;;;;;;;;;;;18.50;60.00;;;;;;5268615;26;87694;-39
2024/04/17 09:01:32;;;;;;;;;;;18.50;60.00;;;;;;5244999;26;86244;-39
2024/04/17 09:03:59;;;;;;;;;;;18.40;60.00;;;;;;5261668;26;86595;-39
2024/04/17 09:06:25;;;;;;;;;;;18.50;60.00;;;;;;5250703;26;84503;-39
2024/04/17 09:08:52;;;;;;;;;;;18.50;59.90;;;;;;5259280;26;85246;-39
2024/04/17 09:11:18;;;;;;;;;;;18.50;59.90;;;;;;5247880;26;85890;-39
2024/04/17 09:13:44;;;;;;;;;;;18.50;60.00;;;;;;5259182;26;87009;-39
2024/04/17 09:16:09;;;;;;;;;;;18.50;59.90;;;;;;5252734;26;87351;-39
2024/04/17 09:18:37;;;;;;;;;;;18.50;59.80;;;;;;5253916;26;86215;-39
2024/04/17 09:21:03;;;;;;;;;;;18.50;59.90;;;;;;5254494;26;85254;-39
2024/04/17 09:23:28;;;;;;;;;;;18.50;59.80;;;;;;5250691;26;86741;-39
2024/04/17 09:25:54;;;;;;;;;;;18.50;59.90;;;;;;5253992;26;85964;-39
2024/04/17 09:28:20;;;;;;;;;;;18.50;59.90;;;;;;5249976;26;86502;-43
2024/04/17 09:30:47;;;;;;;;;;;18.50;60.00;;;;;;5260732;26;86351;-38
2024/04/17 09:33:13;;;;;;;;;;;18.50;59.90;;;;;;5239846;26;85290;-39
2024/04/17 09:35:38;;;;;;;;;;;18.50;59.90;;;;;;5255725;26;85724;-39
2024/04/17 09:38:14;;;;;;;;;;;18.50;59.90;;;;;;5251251;26;88182;-39
2024/04/17 09:40:46;;;;;;;;;;;18.50;59.70;;;;;;5256728;26;85439;-39
2024/04/17 09:43:28;;;;;;;;;;;18.40;59.80;;;;;;5246331;26;86693;-39
2024/04/17 09:46:06;;;;;;;;;;;18.50;60.10;;;;;;5262623;26;85826;-39
2024/04/17 09:48:35;;;;;;;;;;;18.40;60.30;;;;;;5253594;26;85182;-39
2024/04/17 09:51:01;;;;;;;;;;;18.50;60.30;;;;;;5258497;26;86941;-38
2024/04/17 09:53:29;;;;;;;;;;;18.50;60.20;;;;;;5249741;26;85811;-39
2024/04/17 09:55:55;;;;;;;;;;;18.50;60.30;;;;;;5257381;26;85895;-39
2024/04/17 09:58:22;;;;;;;;;;;18.50;60.50;;;;;;5247878;26;85862;-38
2024/04/17 10:00:47;;;;;;;;;;;18.40;60.30;;;;;;5255530;26;85843;-39
2024/04/17 10:03:15;;;;;;;;;;;18.40;60.60;;;;;;5251733;26;86621;-39
2024/04/17 10:05:41;;;;;;;;;;;18.50;60.70;;;;;;5246289;26;86070;-39
2024/04/17 10:08:08;;;;;;;;;;;18.50;60.20;;;;;;5251672;26;85257;-39
2024/04/17 10:10:34;;;;;;;;;;;18.40;60.40;;;;;;5248688;26;86893;-39
2024/04/17 10:12:59;;;;;;;;;;;18.50;60.90;;;;;;5260891;26;85392;-39
2024/04/17 10:15:25;;;;;;;;;;;18.50;60.40;;;;;;5245858;26;86504;-39
2024/04/17 10:17:50;;;;;;;;;;;18.50;60.40;;;;;;5260305;26;85811;-39
2024/04/17 10:20:29;;;;;;;;;;;18.60;60.90;;;;;;5243511;26;84615;-39
2024/04/17 10:23:01;;;;;;;;;;;18.60;60.50;;;;;;5261697;26;85593;-39
2024/04/17 10:25:27;;;;;;;;;;;18.60;60.50;;;;;;5246764;26;87048;-39
2024/04/17 10:27:52;;;;;;;;;;;18.60;60.30;;;;;;5258826;26;86996;-39
2024/04/17 10:30:18;;;;;;;;;;;18.60;60.30;;;;;;5249129;26;86469;-39
2024/04/17 10:32:44;;;;;;;;;;;18.50;60.60;;;;;;5258136;26;85228;-39
2024/04/17 10:35:13;;;;;;;;;;;18.50;60.80;;;;;;5242069;26;86644;-39
2024/04/17 10:37:39;;;;;;;;;;;18.60;60.70;;;;;;5254969;26;86947;-39
2024/04/17 10:40:06;;;;;;;;;;;18.60;60.60;;;;;;5249157;26;85766;-39
2024/04/17 10:42:31;;;;;;;;;;;18.60;60.70;;;;;;5261670;26;86595;-39
2024/04/17 10:44:58;;;;;;;;;;;18.50;60.80;;;;;;5255832;26;86270;-39
2024/04/17 10:47:27;;;;;;;;;;;18.60;60.70;;;;;;5261543;26;85261;-39
2024/04/17 10:50:02;;;;;;;;;;;18.50;60.90;;;;;;5255148;26;85712;-39
2024/04/17 10:52:31;;;;;;;;;;;18.60;60.80;;;;;;5253523;26;86654;-39
2024/04/17 10:54:59;;;;;;;;;;;18.50;61.00;;;;;;5256353;26;86330;-39
2024/04/17 10:57:27;;;;;;;;;;;18.50;61.20;;;;;;5253903;26;86965;-39
2024/04/17 10:59:52;;;;;;;;;;;18.50;61.10;;;;;;5259601;26;85334;-39
2024/04/17 11:02:18;;;;;;;;;;;18.50;61.10;;;;;;5245475;26;85336;-39
2024/04/17 11:04:43;;;;;;;;;;;18.50;61.20;;;;;;5259779;26;87145;-39
2024/04/17 11:07:09;;;;;;;;;;;18.50;61.30;;;;;;5243645;26;86274;-39
2024/04/17 11:09:35;;;;;;;;;;;18.50;61.20;;;;;;5259557;26;85901;-39
2024/04/17 11:12:01;;;;;;;;;;;18.50;61.40;;;;;;5242461;26;85821;-39
2024/04/17 11:14:26;;;;;;;;;;;18.50;61.40;;;;;;5268812;26;85246;-40
2024/04/17 11:16:52;;;;;;;;;;;18.50;61.30;;;;;;5250184;26;86830;-39
2024/04/17 11:19:18;;;;;;;;;;;18.50;61.50;;;;;;5259444;26;85395;-39
2024/04/17 11:21:44;;;;;;;;;;;18.50;61.40;;;;;;5243927;26;86703;-39
2024/04/17 11:24:19;;;;;;;;;;;18.50;61.40;;;;;;5261453;26;85808;-39
2024/04/17 11:26:45;;;;;;;;;;;18.50;61.50;;;;;;5246310;26;85396;-39
2024/04/17 11:29:18;;;;;;;;;;;18.50;61.50;;;;;;5252889;26;86862;-38
2024/04/17 11:31:44;;;;;;;;;;;18.50;61.60;;;;;;5259946;26;87177;-39
2024/04/17 11:34:23;;;;;;;;;;;18.50;61.60;;;;;;5256201;26;85382;-39
2024/04/17 11:36:48;;;;;;;;;;;18.50;61.70;;;;;;5263126;26;85832;-39
2024/04/17 11:39:15;;;;;;;;;;;18.50;61.60;;;;;;5246373;26;85290;-39
2024/04/17 11:41:41;;;;;;;;;;;18.50;61.60;;;;;;5257007;26;86297;-39
2024/04/17 11:44:08;;;;;;;;;;;18.40;61.60;;;;;;5251820;26;85790;-39
2024/04/17 11:46:37;;;;;;;;;;;18.50;61.60;;;;;;5264320;26;85959;-39
2024/04/17 11:49:03;;;;;;;;;;;18.50;61.60;;;;;;5237353;26;86621;-39
2024/04/17 11:51:28;;;;;;;;;;;18.50;61.80;;;;;;5267849;26;85794;-39
2024/04/17 11:53:54;;;;;;;;;;;18.50;61.80;;;;;;5247065;26;85911;-39
2024/04/17 11:56:19;;;;;;;;;;;18.50;61.70;;;;;;5267779;26;85966;-39
2024/04/17 11:58:46;;;;;;;;;;;18.50;61.60;;;;;;5253181;26;86061;-39
2024/04/17 12:01:11;;;;;;;;;;;18.50;61.60;;;;;;5268510;26;86243;-39
2024/04/17 12:03:37;;;;;;;;;;;18.50;61.70;;;;;;5247753;26;85847;-40
2024/04/17 12:06:03;;;;;;;;;;;18.40;61.70;;;;;;5270126;26;86288;-40
2024/04/17 12:08:29;;;;;;;;;;;18.40;61.70;;;;;;5245013;26;87491;-39
2024/04/17 12:10:54;;;;;;;;;;;18.40;61.80;;;;;;5257508;26;86790;-38
2024/04/17 12:13:20;;;;;;;;;;;18.30;61.70;;;;;;5250473;26;85425;-39
2024/04/17 12:15:45;;;;;;;;;;;18.40;61.80;;;;;;5249722;26;85845;-39
2024/04/17 12:18:11;;;;;;;;;;;18.30;61.90;;;;;;5251215;26;85682;-39
2024/04/17 12:20:36;;;;;;;;;;;18.30;61.90;;;;;;5273324;26;85292;-40
2024/04/17 12:23:02;;;;;;;;;;;18.30;62.10;;;;;;5249912;26;85124;-39
2024/04/17 12:28:11;;;;;;;;;;;18.30;62.10;;;;;;5251109;26;85384;-40
2024/04/17 12:30:37;;;;;;;;;;;18.30;61.90;;;;;;5247527;26;86759;-40
2024/04/17 12:33:03;;;;;;;;;;;18.20;62.00;;;;;;5269280;26;85446;-39
2024/04/17 12:35:29;;;;;;;;;;;18.20;62.00;;;;;;5245947;26;86548;-39
2024/04/17 12:37:54;;;;;;;;;;;18.30;61.90;;;;;;5260136;26;87547;-40
2024/04/17 12:40:20;;;;;;;;;;;18.20;61.90;;;;;;5255824;26;85350;-40
2024/04/17 12:42:45;;;;;;;;;;;18.20;61.90;;;;;;5262784;26;86152;-41
2024/04/17 12:45:11;;;;;;;;;;;18.20;61.90;;;;;;5241867;26;85345;-41
2024/04/17 12:47:37;;;;;;;;;;;18.20;62.00;;;;;;5268248;26;85626;-42
2024/04/17 12:50:02;;;;;;;;;;;18.20;61.70;;;;;;5237088;26;87030;-43
2024/04/17 12:52:32;;;;;;;;;;;18.20;62.00;;;;;;5253047;26;85400;-43
2024/04/17 12:54:58;;;;;;;;;;;18.20;61.90;;;;;;5251835;26;86635;-45
2024/04/17 12:57:23;;;;;;;;;;;18.10;61.90;;;;;;5272024;26;87341;-43
2024/04/17 12:59:49;;;;;;;;;;;18.10;61.80;;;;;;5248353;26;86013;-42
2024/04/17 13:02:14;;;;;;;;;;;18.10;61.70;;;;;;5264295;26;86301;-41
2024/04/17 13:04:43;;;;;;;;;;;18.10;61.80;;;;;;5243328;26;87480;-41
2024/04/17 13:07:09;;;;;;;;;;;18.10;62.00;;;;;;5249779;26;86610;-41
2024/04/17 13:09:35;;;;;;;;;;;18.00;61.90;;;;;;5246352;26;86927;-40
2024/04/17 13:12:00;;;;;;;;;;;18.00;61.90;;;;;;5271021;26;84718;-40
2024/04/17 13:14:26;;;;;;;;;;;18.00;61.80;;;;;;5256303;26;85246;-39
2024/04/17 13:16:51;;;;;;;;;;;18.00;61.90;;;;;;5256935;26;87190;-39
2024/04/17 13:19:17;;;;;;;;;;;17.90;61.90;;;;;;5253542;26;86095;-39
2024/04/17 13:21:42;;;;;;;;;;;17.90;61.80;;;;;;5257151;26;87531;-39
2024/04/17 13:24:08;;;;;;;;;;;17.90;61.90;;;;;;5256754;26;86952;-40
2024/04/17 13:26:33;;;;;;;;;;;17.90;61.80;;;;;;5253389;26;85298;-39
2024/04/17 13:28:59;;;;;;;;;;;17.90;61.60;;;;;;5258882;26;87176;-38
2024/04/17 13:31:25;;;;;;;;;;;17.90;61.60;;;;;;5242776;26;85252;-39
2024/04/17 13:33:50;;;;;;;;;;;17.80;61.40;;;;;;5258835;26;86458;-39
2024/04/17 13:36:16;;;;;;;;;;;17.80;61.30;;;;;;5249949;26;87609;-39
2024/04/17 13:38:41;;;;;;;;;;;17.80;61.30;;;;;;5263063;26;85341;-41
2024/04/17 13:41:08;;;;;;;;;;;17.80;61.30;;;;;;5245152;26;85575;-39
2024/04/17 13:43:34;;;;;;;;;;;17.70;61.20;;;;;;5272083;26;86641;-39
2024/04/17 13:46:06;;;;;;;;;;;17.70;61.20;;;;;;5256387;26;85286;-39
2024/04/17 13:48:32;;;;;;;;;;;17.70;61.30;;;;;;5253372;26;85875;-39
2024/04/17 13:50:58;;;;;;;;;;;17.70;61.30;;;;;;5235687;26;85353;-39
2024/04/17 13:53:23;;;;;;;;;;;17.70;61.30;;;;;;5270350;26;86973;-39
2024/04/17 13:55:49;;;;;;;;;;;17.60;61.20;;;;;;5243433;26;87257;-39
2024/04/17 13:58:15;;;;;;;;;;;17.60;61.30;;;;;;5265340;26;85739;-39
2024/04/17 14:00:40;;;;;;;;;;;17.60;61.20;;;;;;5246386;26;86593;-39
2024/04/17 14:03:06;;;;;;;;;;;17.60;61.10;;;;;;5262488;26;85877;-39
2024/04/17 14:05:35;;;;;;;;;;;17.60;61.20;;;;;;5243588;26;85389;-39
2024/04/17 14:08:01;;;;;;;;;;;17.50;61.10;;;;;;5254727;26;86999;-39
2024/04/17 14:10:26;;;;;;;;;;;17.50;61.10;;;;;;5255723;26;85994;-39
2024/04/17 14:12:52;;;;;;;;;;;17.50;61.10;;;;;;5258851;26;85382;-38